Abeytas, New Mexico
Current Conditions -  °F | °C
As of 12:15 PM on Friday 24 Oct 2014 (Local Time) from KE80 Reporting Station
Clear Clear  
Wind Chill: 21°   Ceiling: Unl
Heat Index: 21°   Visibility: 10mi
Dew Point:   Wind: 0mph
Humidity: 27%   Direction: NA
Pressure: 30.33"   Gusts: NA
Location:  34.4828°N, 106.804°W
Report Text: KE80 241815Z AUTO 00000KT 10SM CLR 21/02 A3033 RMK AO2 T02130016
Loading
Personal Weather Stations






























Interactive Weather Map
Tropical Storm Tracking
New forecast layout! Learn more

10-Day Weather Forecast

Advertisements
Track Severe Weather on mobile